createdAt,value
2018-08-09T00:00:35.484Z,86.82
2018-08-09T00:03:06.438Z,86.91
2018-08-09T00:05:37.012Z,87.07
2018-08-09T00:08:07.637Z,87.53
2018-08-09T00:10:38.253Z,87.17
2018-08-09T00:13:09.068Z,86.56
2018-08-09T00:15:39.572Z,86.21
2018-08-09T00:18:10.293Z,86.31
2018-08-09T00:20:40.856Z,86.23
2018-08-09T00:23:11.479Z,87.67
2018-08-09T00:25:42.441Z,87.80
2018-08-09T00:28:12.995Z,88.27
2018-08-09T00:30:43.509Z,88.41
2018-08-09T00:33:14.298Z,88.84
2018-08-09T00:35:44.988Z,89.24
2018-08-09T00:38:15.581Z,89.41
2018-08-09T00:40:46.060Z,89.34
2018-08-09T00:43:16.474Z,89.66
2018-08-09T00:45:47.481Z,90.78
2018-08-09T00:48:18.778Z,90.84
2018-08-09T00:50:49.469Z,91.18
2018-08-09T00:53:20.958Z,90.96
2018-08-09T00:55:51.635Z,91.01
2018-08-09T00:58:22.110Z,90.84
2018-08-09T01:00:52.989Z,90.56
2018-08-09T01:03:23.669Z,90.83
2018-08-09T01:05:54.331Z,90.46
2018-08-09T01:08:24.948Z,90.85
2018-08-09T01:10:55.344Z,91.20
2018-08-09T01:13:25.727Z,91.25
2018-08-09T01:15:56.058Z,90.55
2018-08-09T01:18:26.482Z,89.68
2018-08-09T01:20:57.159Z,89.54
2018-08-09T01:23:27.819Z,90.02
2018-08-09T01:25:58.535Z,92.03
2018-08-09T01:28:28.996Z,92.17
2018-08-09T01:30:59.540Z,92.19
2018-08-09T01:33:30.032Z,92.09
2018-08-09T01:36:00.652Z,92.51
2018-08-09T01:38:31.411Z,91.84
2018-08-09T01:41:02.211Z,91.60
2018-08-09T01:43:49.681Z,91.76
2018-08-09T01:46:20.298Z,91.74
2018-08-09T01:48:50.869Z,91.55
2018-08-09T01:51:22.135Z,92.11
2018-08-09T01:53:53.717Z,92.55
2018-08-09T01:56:24.337Z,92.21
2018-08-09T01:58:55.573Z,91.33
2018-08-09T02:01:26.247Z,91.25
2018-08-09T02:03:56.782Z,91.44
2018-08-09T02:06:27.379Z,91.18
2018-08-09T02:09:02.018Z,90.92
2018-08-09T02:11:32.434Z,91.22
2018-08-09T02:14:03.504Z,91.07
2018-08-09T02:16:34.009Z,91.15
2018-08-09T02:19:04.685Z,91.72
2018-08-09T02:21:35.155Z,92.06
2018-08-09T02:24:05.660Z,92.00
2018-08-09T02:26:36.383Z,92.08
2018-08-09T02:29:08.501Z,92.13
2018-08-09T02:31:39.047Z,92.48
2018-08-09T02:34:10.022Z,92.35
2018-08-09T02:36:40.621Z,92.52
2018-08-09T02:39:11.921Z,92.31
2018-08-09T02:41:42.417Z,92.50
2018-08-09T02:44:12.982Z,92.34
2018-08-09T02:46:43.881Z,92.52
2018-08-09T02:49:14.537Z,92.25
2018-08-09T02:51:45.152Z,92.24
2018-08-09T02:54:15.913Z,92.64
2018-08-09T02:56:46.404Z,92.96
2018-08-09T02:59:17.074Z,93.32
2018-08-09T03:01:47.499Z,93.29
2018-08-09T03:04:18.022Z,93.10
2018-08-09T03:06:48.468Z,93.39
2018-08-09T03:09:19.177Z,92.92
2018-08-09T03:11:49.816Z,92.90
2018-08-09T03:14:20.393Z,92.05
2018-08-09T03:16:50.871Z,91.86
2018-08-09T03:19:21.251Z,92.38
2018-08-09T03:21:51.799Z,91.75
2018-08-09T03:24:22.290Z,92.30
2018-08-09T03:26:53.835Z,93.32
2018-08-09T03:29:24.513Z,93.51
2018-08-09T03:31:55.036Z,93.40
2018-08-09T03:34:25.565Z,93.04
2018-08-09T03:36:56.493Z,92.83
2018-08-09T03:39:26.954Z,92.82
2018-08-09T03:41:57.857Z,92.61
2018-08-09T03:44:28.446Z,92.34
2018-08-09T03:46:58.870Z,92.34
2018-08-09T03:49:29.381Z,92.31
2018-08-09T03:51:59.879Z,92.30
2018-08-09T03:54:30.380Z,92.78
2018-08-09T03:57:00.861Z,92.80
2018-08-09T03:59:31.372Z,93.20
2018-08-09T04:02:01.823Z,93.07
2018-08-09T04:04:32.548Z,93.67
2018-08-09T04:07:02.966Z,93.58
2018-08-09T04:09:33.724Z,93.32
2018-08-09T04:12:04.203Z,93.32
2018-08-09T04:14:35.109Z,93.26
2018-08-09T04:17:23.118Z,93.57
2018-08-09T04:19:54.414Z,93.62
2018-08-09T04:22:25.435Z,93.36
2018-08-09T04:24:55.959Z,93.21
2018-08-09T04:27:26.560Z,93.61
2018-08-09T04:29:57.165Z,93.70
2018-08-09T04:32:27.712Z,93.63
2018-08-09T04:34:58.160Z,93.14
2018-08-09T04:37:28.795Z,93.26
2018-08-09T04:39:59.233Z,92.69
2018-08-09T04:42:29.994Z,92.52
2018-08-09T04:45:00.832Z,92.06
2018-08-09T04:47:31.722Z,91.47
2018-08-09T04:50:02.268Z,92.17
2018-08-09T04:52:32.780Z,91.99
2018-08-09T04:55:03.786Z,91.29
2018-08-09T04:57:34.318Z,90.91
2018-08-09T05:00:05.593Z,90.92
2018-08-09T05:02:36.248Z,90.69
2018-08-09T05:05:07.015Z,90.47
2018-08-09T05:07:37.718Z,90.19
2018-08-09T05:10:10.395Z,90.82
2018-08-09T05:12:42.494Z,89.92
2018-08-09T05:15:13.765Z,89.31
2018-08-09T05:17:44.394Z,88.57
2018-08-09T05:20:14.955Z,88.39
2018-08-09T05:22:45.524Z,87.88
2018-08-09T05:25:16.155Z,87.68
2018-08-09T05:27:46.642Z,86.93
2018-08-09T05:30:18.144Z,86.11
2018-08-09T05:32:48.934Z,85.82
2018-08-09T05:35:19.363Z,85.45
2018-08-09T05:37:50.080Z,86.06
2018-08-09T05:40:21.213Z,84.88
2018-08-09T05:42:53.359Z,84.80
2018-08-09T05:45:24.631Z,83.82
2018-08-09T05:47:55.225Z,81.29
2018-08-09T05:50:25.719Z,77.11
2018-08-09T05:52:56.681Z,74.47
2018-08-09T05:55:27.279Z,72.49
2018-08-09T05:58:01.003Z,70.42
2018-08-09T06:00:32.165Z,67.94
2018-08-09T06:03:03.008Z,66.47
2018-08-09T06:05:33.818Z,65.90
2018-08-09T06:08:04.678Z,65.63
2018-08-09T06:10:36.995Z,64.04
2018-08-09T06:13:08.260Z,63.76
2018-08-09T06:15:40.558Z,63.87
2018-08-09T06:18:12.185Z,63.83
2018-08-09T06:20:42.866Z,62.31
2018-08-09T06:23:13.594Z,61.20
2018-08-09T06:25:44.452Z,60.15
2018-08-09T06:28:15.491Z,59.28
2018-08-09T06:30:46.443Z,58.10
2018-08-09T06:33:17.757Z,57.74
2018-08-09T06:35:50.054Z,57.76
2018-08-09T06:38:21.407Z,57.12
2018-08-09T06:40:52.234Z,55.53
2018-08-09T06:43:23.838Z,54.74
2018-08-09T06:45:54.921Z,53.92
2018-08-09T06:48:27.101Z,53.50
2018-08-09T06:50:58.334Z,52.42
2018-08-09T06:53:31.119Z,52.54
2018-08-09T06:56:03.421Z,52.71
2018-08-09T06:58:34.292Z,51.42
2018-08-09T07:01:05.079Z,51.88
2018-08-09T07:03:35.794Z,51.02
2018-08-09T07:06:06.659Z,49.55
2018-08-09T07:08:37.995Z,47.87
2018-08-09T07:11:13.562Z,47.36
2018-08-09T07:13:45.534Z,47.66
2018-08-09T07:16:17.797Z,47.11
2018-08-09T07:18:48.875Z,45.69
2018-08-09T07:21:19.645Z,45.46
2018-08-09T07:23:51.506Z,45.69
2018-08-09T07:26:23.847Z,44.82
2018-08-09T07:28:54.539Z,43.10
2018-08-09T07:31:25.867Z,43.87
2018-08-09T07:33:56.707Z,42.16
2018-08-09T07:36:27.373Z,41.63
2018-08-09T07:38:57.938Z,41.72
2018-08-09T07:41:29.394Z,41.20
2018-08-09T07:44:01.016Z,41.39
2018-08-09T07:46:32.657Z,41.10
2018-08-09T07:49:03.650Z,39.83
2018-08-09T07:51:35.663Z,37.80
2018-08-09T07:54:06.938Z,38.70
2018-08-09T07:56:38.228Z,36.26
2018-08-09T07:59:09.129Z,35.64
2018-08-09T08:01:41.321Z,35.59
2018-08-09T08:04:12.238Z,34.86
2018-08-09T08:06:43.986Z,34.66
2018-08-09T08:09:15.071Z,34.84
2018-08-09T08:11:52.872Z,34.19
2018-08-09T08:14:25.187Z,32.21
2018-08-09T08:16:56.362Z,33.04
2018-08-09T08:19:28.196Z,34.17
2018-08-09T08:21:58.738Z,33.72
2018-08-09T08:24:37.745Z,32.64
2018-08-09T08:27:09.818Z,31.98
2018-08-09T08:29:41.387Z,33.38
2018-08-09T08:32:13.724Z,34.25
2018-08-09T08:34:44.656Z,34.27
2018-08-09T08:37:15.835Z,32.92
2018-08-09T08:39:46.581Z,32.39
2018-08-09T08:42:17.164Z,30.85
2018-08-09T08:44:48.217Z,30.41
2018-08-09T08:47:20.554Z,31.00
2018-08-09T08:49:51.582Z,30.31
2018-08-09T08:52:22.700Z,28.68
2018-08-09T08:54:53.301Z,28.74
2018-08-09T08:57:24.272Z,28.75
2018-08-09T08:59:55.468Z,28.90
2018-08-09T09:02:26.249Z,29.19
2018-08-09T09:04:58.458Z,27.68
2018-08-09T09:07:29.572Z,26.99
2018-08-09T09:10:01.411Z,25.88
2018-08-09T09:12:33.009Z,26.97
2018-08-09T09:15:04.655Z,27.28
2018-08-09T09:17:35.337Z,26.28
2018-08-09T09:20:10.281Z,25.93
2018-08-09T09:22:41.712Z,27.09
2018-08-09T09:25:13.779Z,27.47
2018-08-09T09:27:44.558Z,26.18
2018-08-09T09:30:16.714Z,25.53
2018-08-09T09:32:47.735Z,25.03
2018-08-09T09:35:18.643Z,23.95
2018-08-09T09:37:50.989Z,23.74
2018-08-09T09:40:21.809Z,24.10
2018-08-09T09:42:52.409Z,22.42
2018-08-09T09:45:23.118Z,22.52
2018-08-09T09:47:54.123Z,23.31
2018-08-09T09:50:25.044Z,22.68
2018-08-09T09:52:55.916Z,23.26
2018-08-09T09:55:27.096Z,25.07
2018-08-09T09:57:58.271Z,24.00
2018-08-09T10:00:30.043Z,23.96
2018-08-09T10:03:01.490Z,23.69
2018-08-09T10:05:32.661Z,23.15
2018-08-09T10:08:03.185Z,23.67
2018-08-09T10:10:34.030Z,23.24
2018-08-09T10:13:04.814Z,22.41
2018-08-09T10:15:36.251Z,21.73
2018-08-09T10:18:07.380Z,22.13
2018-08-09T10:20:37.958Z,21.66
2018-08-09T10:23:08.726Z,21.37
2018-08-09T10:25:39.391Z,20.73
2018-08-09T10:28:10.143Z,21.33
2018-08-09T10:30:41.445Z,22.07
2018-08-09T10:33:12.968Z,22.73
2018-08-09T10:35:44.655Z,22.57
2018-08-09T10:38:15.430Z,21.82
2018-08-09T10:40:46.497Z,20.50
2018-08-09T10:43:17.453Z,21.47
2018-08-09T10:45:48.477Z,22.21
2018-08-09T10:48:19.665Z,22.04
2018-08-09T10:50:50.536Z,22.64
2018-08-09T10:53:22.007Z,22.38
2018-08-09T10:55:52.637Z,22.56
2018-08-09T10:58:23.346Z,23.01
2018-08-09T11:00:53.925Z,21.95
2018-08-09T11:03:24.516Z,21.88
2018-08-09T11:05:54.990Z,22.29
2018-08-09T11:08:25.696Z,22.02
2018-08-09T11:10:57.273Z,22.46
2018-08-09T11:13:28.915Z,23.24
2018-08-09T11:15:59.562Z,22.67
2018-08-09T11:18:30.385Z,22.25
2018-08-09T11:21:02.118Z,22.72
2018-08-09T11:23:33.809Z,21.44
2018-08-09T11:26:04.367Z,21.09
2018-08-09T11:28:35.352Z,19.58
2018-08-09T11:31:08.271Z,19.82
2018-08-09T11:33:39.066Z,19.60
2018-08-09T11:36:10.362Z,19.72
2018-08-09T11:38:41.140Z,21.05
2018-08-09T11:41:12.627Z,21.32
2018-08-09T11:43:43.236Z,19.77
2018-08-09T11:46:14.209Z,19.11
2018-08-09T11:48:46.482Z,19.26
2018-08-09T11:51:17.175Z,19.10
2018-08-09T11:53:48.333Z,20.11
2018-08-09T11:56:20.735Z,20.67
2018-08-09T11:58:51.465Z,22.08
2018-08-09T12:01:23.144Z,20.28
2018-08-09T12:03:54.475Z,19.55
2018-08-09T12:06:27.898Z,19.19
2018-08-09T12:09:00.101Z,17.65
2018-08-09T12:11:32.642Z,17.34
2018-08-09T12:14:03.646Z,16.39
2018-08-09T12:16:34.638Z,17.01
2018-08-09T12:19:05.968Z,16.50
2018-08-09T12:21:38.160Z,16.15
2018-08-09T12:24:09.545Z,17.19
2018-08-09T12:26:40.439Z,18.29
2018-08-09T12:29:11.339Z,19.95
2018-08-09T12:31:42.409Z,19.60
2018-08-09T12:34:14.541Z,19.58
2018-08-09T12:36:46.295Z,21.81
2018-08-09T12:39:18.779Z,23.55
2018-08-09T12:41:50.112Z,23.84
2018-08-09T12:44:21.333Z,23.98
2018-08-09T12:46:52.245Z,26.85
2018-08-09T12:49:23.212Z,27.51
2018-08-09T12:51:53.937Z,27.52
2018-08-09T12:54:26.058Z,28.61
2018-08-09T12:56:58.190Z,33.60
2018-08-09T12:59:30.360Z,36.47
2018-08-09T13:02:01.654Z,36.19
2018-08-09T13:04:33.509Z,35.61
2018-08-09T13:07:04.854Z,34.36
2018-08-09T13:09:35.814Z,33.76
2018-08-09T13:12:06.994Z,31.35
2018-08-09T13:14:39.404Z,28.41
2018-08-09T13:17:10.441Z,27.79
2018-08-09T13:19:41.549Z,27.16
2018-08-09T13:22:12.541Z,29.05
2018-08-09T13:24:43.355Z,28.40
2018-08-09T13:27:15.048Z,29.28
2018-08-09T13:29:46.477Z,29.68
2018-08-09T13:32:19.745Z,29.26
2018-08-09T13:34:50.777Z,31.08
2018-08-09T13:37:22.055Z,29.53
2018-08-09T13:39:56.105Z,27.85
2018-08-09T13:42:27.245Z,26.41
2018-08-09T13:45:02.448Z,25.78
2018-08-09T13:47:35.926Z,23.93
2018-08-09T13:50:10.679Z,24.09
2018-08-09T13:52:42.845Z,23.70
2018-08-09T13:55:16.950Z,22.88
2018-08-09T13:57:48.312Z,23.25
2018-08-09T14:00:22.489Z,22.83
2018-08-09T14:02:53.880Z,23.13
2018-08-09T14:05:26.672Z,23.05
2018-08-09T14:07:58.655Z,22.57
2018-08-09T14:10:30.867Z,22.53
2018-08-09T14:13:07.765Z,22.79
2018-08-09T14:15:39.596Z,22.68
2018-08-09T14:18:10.410Z,22.53
2018-08-09T14:20:43.275Z,22.87
2018-08-09T14:23:15.659Z,23.17
2018-08-09T14:25:51.830Z,23.49
2018-08-09T14:28:24.891Z,23.03
2018-08-09T14:31:01.581Z,22.94
2018-08-09T14:33:34.721Z,23.29
2018-08-09T14:36:11.703Z,23.44
2018-08-09T14:38:47.457Z,24.18
2018-08-09T14:41:18.689Z,25.07
2018-08-09T14:43:52.160Z,24.19
2018-08-09T14:46:23.997Z,25.16
2018-08-09T14:49:05.521Z,26.08
2018-08-09T14:51:37.264Z,25.53
2018-08-09T14:54:08.550Z,24.75
2018-08-09T14:56:40.384Z,25.70
2018-08-09T14:59:11.388Z,25.68
2018-08-09T15:01:42.421Z,25.21
2018-08-09T15:04:14.178Z,25.92
2018-08-09T15:06:46.044Z,26.56
2018-08-09T15:09:16.818Z,27.67
2018-08-09T15:11:47.682Z,28.42
2018-08-09T15:14:19.330Z,30.95
2018-08-09T15:16:50.287Z,30.46
2018-08-09T15:19:20.935Z,31.51
2018-08-09T15:21:52.203Z,36.19
2018-08-09T15:24:24.816Z,38.59
2018-08-09T15:26:58.237Z,41.11
2018-08-09T15:29:29.336Z,40.26
2018-08-09T15:32:00.457Z,39.62
2018-08-09T15:34:31.703Z,41.04
2018-08-09T15:37:05.768Z,42.68
2018-08-09T15:39:37.926Z,40.41
2018-08-09T15:42:09.205Z,38.55
2018-08-09T15:44:40.039Z,39.06
2018-08-09T15:47:11.328Z,39.12
2018-08-09T15:49:42.544Z,40.26
2018-08-09T15:52:13.376Z,38.04
2018-08-09T15:54:44.551Z,38.48
2018-08-09T15:57:16.254Z,39.06
2018-08-09T15:59:47.938Z,38.33
2018-08-09T16:02:21.011Z,39.57
2018-08-09T16:04:52.287Z,38.91
2018-08-09T16:07:23.963Z,38.74
2018-08-09T16:09:54.971Z,40.33
2018-08-09T16:12:26.083Z,39.42
2018-08-09T16:14:57.887Z,39.14
2018-08-09T16:17:29.044Z,40.09
2018-08-09T16:20:00.694Z,40.01
2018-08-09T16:22:31.555Z,40.04
2018-08-09T16:25:02.310Z,40.16
2018-08-09T16:27:33.217Z,39.75
2018-08-09T16:30:04.297Z,41.18
2018-08-09T16:32:36.752Z,41.39
2018-08-09T16:35:09.010Z,43.14
2018-08-09T16:37:40.551Z,42.67
2018-08-09T16:40:17.213Z,43.65
2018-08-09T16:42:48.242Z,44.05
2018-08-09T16:45:20.840Z,43.49
2018-08-09T16:47:54.303Z,43.65
2018-08-09T16:50:26.147Z,43.33
2018-08-09T16:52:58.109Z,43.85
2018-08-09T16:55:29.847Z,44.45
2018-08-09T16:58:00.437Z,43.67
2018-08-09T17:00:31.757Z,45.66
2018-08-09T17:03:04.475Z,46.38
2018-08-09T17:05:38.607Z,46.32
2018-08-09T17:08:10.800Z,46.50
2018-08-09T17:10:42.156Z,47.87
2018-08-09T17:13:13.195Z,47.75
2018-08-09T17:15:44.018Z,47.08
2018-08-09T17:18:15.231Z,45.79
2018-08-09T17:20:49.334Z,46.45
2018-08-09T17:23:20.210Z,46.06
2018-08-09T17:25:51.137Z,46.39
2018-08-09T17:28:21.922Z,46.50
2018-08-09T17:30:52.777Z,47.66
2018-08-09T17:33:24.735Z,47.93
2018-08-09T17:35:55.974Z,47.75
2018-08-09T17:38:28.465Z,48.24
2018-08-09T17:40:59.615Z,48.99
2018-08-09T17:43:31.077Z,48.80
2018-08-09T17:46:02.013Z,49.35
2018-08-09T17:48:33.667Z,50.94
2018-08-09T17:51:05.504Z,50.36
2018-08-09T17:53:37.373Z,50.67
2018-08-09T17:56:08.980Z,50.27
2018-08-09T17:58:40.764Z,50.51
2018-08-09T18:01:11.683Z,50.74
2018-08-09T18:03:42.749Z,51.52
2018-08-09T18:06:13.907Z,51.09
2018-08-09T18:08:44.800Z,51.56
2018-08-09T18:11:16.520Z,51.60
2018-08-09T18:13:49.080Z,51.79
2018-08-09T18:16:20.338Z,51.78
2018-08-09T18:18:51.457Z,51.51
2018-08-09T18:21:22.937Z,51.78
2018-08-09T18:23:53.708Z,51.40
2018-08-09T18:26:24.711Z,51.40
2018-08-09T18:28:56.457Z,51.21
2018-08-09T18:31:27.887Z,51.98
2018-08-09T18:33:58.663Z,53.28
2018-08-09T18:36:29.968Z,54.90
2018-08-09T18:39:01.154Z,54.84
2018-08-09T18:41:32.063Z,56.50
2018-08-09T18:44:03.220Z,56.63
2018-08-09T18:46:34.987Z,57.01
2018-08-09T18:49:07.622Z,57.26
2018-08-09T18:51:40.286Z,57.66
2018-08-09T18:54:13.200Z,58.27
2018-08-09T18:56:48.382Z,57.82
2018-08-09T18:59:20.360Z,58.30
2018-08-09T19:01:52.114Z,58.13
2018-08-09T19:04:23.843Z,58.31
2018-08-09T19:06:55.925Z,59.52
2018-08-09T19:09:27.515Z,59.95
2018-08-09T19:12:02.024Z,60.55
2018-08-09T19:14:34.390Z,60.88
2018-08-09T19:17:06.340Z,60.60
2018-08-09T19:19:38.124Z,61.67
2018-08-09T19:22:10.170Z,61.34
2018-08-09T19:24:42.683Z,61.68
2018-08-09T19:27:15.980Z,62.37
2018-08-09T19:29:48.880Z,63.60
2018-08-09T19:32:20.890Z,63.44
2018-08-09T19:34:53.056Z,63.79
2018-08-09T19:37:25.156Z,63.79
2018-08-09T19:39:57.573Z,64.00
2018-08-09T19:42:29.774Z,63.66
2018-08-09T19:45:01.648Z,64.31
2018-08-09T19:48:22.033Z,65.33
2018-08-09T19:50:55.473Z,65.91
2018-08-09T19:53:27.762Z,65.18
2018-08-09T19:55:59.990Z,64.96
2018-08-09T19:58:32.401Z,66.13
2018-08-09T20:01:05.914Z,67.15
2018-08-09T20:03:38.891Z,68.83
2018-08-09T20:06:11.034Z,69.04
2018-08-09T20:08:43.938Z,68.86
2018-08-09T20:11:17.846Z,68.10
2018-08-09T20:13:50.150Z,67.85
2018-08-09T20:16:22.123Z,67.82
2018-08-09T20:18:54.085Z,67.23
2018-08-09T20:21:26.231Z,67.54
2018-08-09T20:23:58.006Z,67.78
2018-08-09T20:26:30.378Z,68.14
2018-08-09T20:29:03.589Z,68.48
2018-08-09T20:31:35.737Z,69.56
2018-08-09T20:34:08.041Z,70.28
2018-08-09T20:36:39.930Z,68.80
2018-08-09T20:39:14.196Z,68.56
2018-08-09T20:41:45.827Z,68.62
2018-08-09T20:44:16.868Z,68.58
2018-08-09T20:46:48.157Z,68.18
2018-08-09T20:49:19.551Z,68.53
2018-08-09T20:51:52.496Z,68.78
2018-08-09T20:54:23.571Z,68.70
2018-08-09T20:56:54.971Z,69.03
2018-08-09T20:59:26.219Z,70.12
2018-08-09T21:01:58.201Z,71.77
2018-08-09T21:04:28.911Z,70.26
2018-08-09T21:06:59.515Z,69.46
2018-08-09T21:09:30.366Z,69.14
2018-08-09T21:12:00.947Z,69.02
2018-08-09T21:14:31.970Z,69.40
2018-08-09T21:17:02.815Z,69.70
2018-08-09T21:19:36.175Z,70.50
2018-08-09T21:22:08.647Z,70.55
2018-08-09T21:24:39.740Z,70.62
2018-08-09T21:27:10.435Z,70.70
2018-08-09T21:29:43.042Z,70.50
2018-08-09T21:32:13.896Z,71.39
2018-08-09T21:34:45.001Z,73.03
2018-08-09T21:37:18.030Z,73.44
2018-08-09T21:39:49.839Z,73.65
2018-08-09T21:42:20.833Z,74.38
2018-08-09T21:44:52.416Z,74.54
2018-08-09T21:47:24.277Z,74.11
2018-08-09T21:49:56.071Z,74.10
2018-08-09T21:52:28.768Z,73.41
2018-08-09T21:55:00.688Z,73.44
2018-08-09T21:57:32.621Z,73.45
2018-08-09T22:00:04.850Z,73.84
2018-08-09T22:02:39.536Z,74.24
2018-08-09T22:05:19.339Z,74.22
2018-08-09T22:07:57.149Z,74.43
2018-08-09T22:10:33.784Z,74.41
2018-08-09T22:13:13.279Z,74.47
2018-08-09T22:15:49.354Z,75.09
2018-08-09T22:18:27.602Z,75.48
2018-08-09T22:21:04.762Z,75.44
2018-08-09T22:23:38.793Z,75.28
2018-08-09T22:26:12.102Z,76.11
2018-08-09T22:28:45.043Z,76.62
2018-08-09T22:31:17.164Z,77.30
2018-08-09T22:33:49.830Z,77.59
2018-08-09T22:36:21.775Z,78.57
2018-08-09T22:38:54.804Z,78.17
2018-08-09T22:41:29.089Z,78.70
2018-08-09T22:44:00.780Z,78.46
2018-08-09T22:46:32.195Z,77.81
2018-08-09T22:49:05.272Z,77.29
2018-08-09T22:51:38.292Z,76.88
2018-08-09T22:54:10.213Z,77.23
2018-08-09T22:56:42.809Z,75.63
2018-08-09T22:59:17.254Z,75.02
2018-08-09T23:01:49.123Z,75.71
2018-08-09T23:04:20.650Z,75.19
2018-08-09T23:06:52.961Z,76.44
2018-08-09T23:09:27.371Z,77.45
2018-08-09T23:12:00.038Z,77.66
2018-08-09T23:14:33.191Z,78.21
2018-08-09T23:17:04.071Z,78.96
2018-08-09T23:19:36.758Z,79.38
2018-08-09T23:22:08.121Z,78.72
2018-08-09T23:24:39.733Z,79.57
2018-08-09T23:27:12.088Z,78.63
2018-08-09T23:29:44.725Z,78.42
2018-08-09T23:32:16.673Z,78.73
2018-08-09T23:34:48.037Z,78.71
2018-08-09T23:37:20.000Z,79.41
2018-08-09T23:39:52.617Z,79.49
2018-08-09T23:42:24.285Z,80.26
2018-08-09T23:44:55.595Z,80.35
2018-08-09T23:47:28.632Z,80.60
2018-08-09T23:50:00.329Z,80.29
2018-08-09T23:52:32.881Z,80.46
2018-08-09T23:55:04.491Z,80.61
2018-08-09T23:57:37.036Z,80.61
